sensor_id;sensor_type;location;lat;lon;timestamp;temperature;humidity
6958;DHT22;50346;51.268;15.942;2022-08-23T00:01:42;16.30;99.90
6958;DHT22;50346;51.268;15.942;2022-08-23T00:04:29;16.30;99.90
6958;DHT22;50346;51.268;15.942;2022-08-23T00:06:55;16.10;99.90
6958;DHT22;50346;51.268;15.942;2022-08-23T00:09:23;16.30;99.90
6958;DHT22;50346;51.268;15.942;2022-08-23T00:12:02;16.20;99.90
6958;DHT22;50346;51.268;15.942;2022-08-23T00:14:31;16.10;99.90
6958;DHT22;50346;51.268;15.942;2022-08-23T00:16:58;16.20;99.90
6958;DHT22;50346;51.268;15.942;2022-08-23T00:19:24;16.20;99.90
6958;DHT22;50346;51.268;15.942;2022-08-23T00:21:51;16.10;99.90
6958;DHT22;50346;51.268;15.942;2022-08-23T00:24:18;16.20;99.90
6958;DHT22;50346;51.268;15.942;2022-08-23T00:27:06;16.20;99.90
6958;DHT22;50346;51.268;15.942;2022-08-23T00:29:43;16.10;99.90
6958;DHT22;50346;51.268;15.942;2022-08-23T00:32:11;16.10;99.90
6958;DHT22;50346;51.268;15.942;2022-08-23T00:34:38;16.20;99.90
6958;DHT22;50346;51.268;15.942;2022-08-23T00:37:05;16.10;99.90
6958;DHT22;50346;51.268;15.942;2022-08-23T00:39:31;16.30;99.90
6958;DHT22;50346;51.268;15.942;2022-08-23T00:42:03;16.60;99.90
6958;DHT22;50346;51.268;15.942;2022-08-23T00:44:49;16.10;99.90
6958;DHT22;50346;51.268;15.942;2022-08-23T00:47:32;16.10;99.90
6958;DHT22;50346;51.268;15.942;2022-08-23T00:50:53;16.20;99.90
6958;DHT22;50346;51.268;15.942;2022-08-23T00:53:18;16.10;99.90
6958;DHT22;50346;51.268;15.942;2022-08-23T00:55:46;16.10;99.90
6958;DHT22;50346;51.268;15.942;2022-08-23T00:58:14;16.10;99.90
6958;DHT22;50346;51.268;15.942;2022-08-23T01:00:41;16.30;99.90
6958;DHT22;50346;51.268;15.942;2022-08-23T01:03:08;16.10;99.90
6958;DHT22;50346;51.268;15.942;2022-08-23T01:05:44;16.10;99.90
6958;DHT22;50346;51.268;15.942;2022-08-23T01:08:11;16.20;99.90
6958;DHT22;50346;51.268;15.942;2022-08-23T01:10:44;16.30;99.90
6958;DHT22;50346;51.268;15.942;2022-08-23T01:13:20;16.10;99.90
6958;DHT22;50346;51.268;15.942;2022-08-23T01:15:56;16.10;99.90
6958;DHT22;50346;51.268;15.942;2022-08-23T01:18:26;16.20;99.90
6958;DHT22;50346;51.268;15.942;2022-08-23T01:23:52;16.20;99.90
6958;DHT22;50346;51.268;15.942;2022-08-23T01:26:20;16.20;99.90
6958;DHT22;50346;51.268;15.942;2022-08-23T01:28:46;16.10;99.90
6958;DHT22;50346;51.268;15.942;2022-08-23T01:31:14;16.20;99.90
6958;DHT22;50346;51.268;15.942;2022-08-23T01:33:41;16.10;99.90
6958;DHT22;50346;51.268;15.942;2022-08-23T01:36:12;16.20;99.90
6958;DHT22;50346;51.268;15.942;2022-08-23T01:38:38;16.20;99.90
6958;DHT22;50346;51.268;15.942;2022-08-23T01:41:04;16.10;99.90
6958;DHT22;50346;51.268;15.942;2022-08-23T01:43:31;16.10;99.90
6958;DHT22;50346;51.268;15.942;2022-08-23T01:45:57;16.20;99.90
6958;DHT22;50346;51.268;15.942;2022-08-23T01:48:31;16.30;99.90
6958;DHT22;50346;51.268;15.942;2022-08-23T01:50:56;16.10;99.90
6958;DHT22;50346;51.268;15.942;2022-08-23T01:53:22;16.00;99.90
6958;DHT22;50346;51.268;15.942;2022-08-23T01:55:47;16.60;99.90
6958;DHT22;50346;51.268;15.942;2022-08-23T01:58:13;16.20;99.90
6958;DHT22;50346;51.268;15.942;2022-08-23T02:00:41;16.30;99.90
6958;DHT22;50346;51.268;15.942;2022-08-23T02:03:08;16.20;99.90
6958;DHT22;50346;51.268;15.942;2022-08-23T02:05:34;16.20;99.90
6958;DHT22;50346;51.268;15.942;2022-08-23T02:08:02;16.10;99.90
6958;DHT22;50346;51.268;15.942;2022-08-23T02:10:48;16.10;99.90
6958;DHT22;50346;51.268;15.942;2022-08-23T02:13:13;16.30;99.90
6958;DHT22;50346;51.268;15.942;2022-08-23T02:15:42;16.10;99.90
6958;DHT22;50346;51.268;15.942;2022-08-23T02:18:08;16.10;99.90
6958;DHT22;50346;51.268;15.942;2022-08-23T02:20:35;16.30;99.90
6958;DHT22;50346;51.268;15.942;2022-08-23T02:23:01;16.20;99.90
6958;DHT22;50346;51.268;15.942;2022-08-23T02:25:27;16.10;99.90
6958;DHT22;50346;51.268;15.942;2022-08-23T02:27:53;16.10;99.90
6958;DHT22;50346;51.268;15.942;2022-08-23T02:30:19;16.20;99.90
6958;DHT22;50346;51.268;15.942;2022-08-23T02:32:44;16.00;99.90
6958;DHT22;50346;51.268;15.942;2022-08-23T02:35:10;16.10;99.90
6958;DHT22;50346;51.268;15.942;2022-08-23T02:37:36;16.10;99.90
6958;DHT22;50346;51.268;15.942;2022-08-23T02:40:03;16.20;99.90
6958;DHT22;50346;51.268;15.942;2022-08-23T02:42:28;16.00;99.90
6958;DHT22;50346;51.268;15.942;2022-08-23T02:44:54;16.10;99.90
6958;DHT22;50346;51.268;15.942;2022-08-23T02:47:20;16.20;99.90
6958;DHT22;50346;51.268;15.942;2022-08-23T02:49:46;16.20;99.90
6958;DHT22;50346;51.268;15.942;2022-08-23T02:52:11;16.20;99.90
6958;DHT22;50346;51.268;15.942;2022-08-23T02:54:37;16.20;99.90
6958;DHT22;50346;51.268;15.942;2022-08-23T02:57:03;16.00;99.90
6958;DHT22;50346;51.268;15.942;2022-08-23T02:59:29;16.00;99.90
6958;DHT22;50346;51.268;15.942;2022-08-23T03:01:54;16.20;99.90
6958;DHT22;50346;51.268;15.942;2022-08-23T03:04:20;16.00;99.90
6958;DHT22;50346;51.268;15.942;2022-08-23T03:06:45;15.60;99.90
6958;DHT22;50346;51.268;15.942;2022-08-23T03:09:11;16.10;99.90
6958;DHT22;50346;51.268;15.942;2022-08-23T03:11:37;16.10;99.90
6958;DHT22;50346;51.268;15.942;2022-08-23T03:14:03;16.20;99.90
6958;DHT22;50346;51.268;15.942;2022-08-23T03:16:29;16.20;99.90
6958;DHT22;50346;51.268;15.942;2022-08-23T03:18:55;16.20;99.90
6958;DHT22;50346;51.268;15.942;2022-08-23T03:21:21;16.20;99.90
6958;DHT22;50346;51.268;15.942;2022-08-23T03:23:47;16.10;99.90
6958;DHT22;50346;51.268;15.942;2022-08-23T03:26:14;16.10;99.90
6958;DHT22;50346;51.268;15.942;2022-08-23T03:28:41;16.20;99.90
6958;DHT22;50346;51.268;15.942;2022-08-23T03:31:07;16.10;99.90
6958;DHT22;50346;51.268;15.942;2022-08-23T03:33:34;16.10;99.90
6958;DHT22;50346;51.268;15.942;2022-08-23T03:36:00;16.40;99.90
6958;DHT22;50346;51.268;15.942;2022-08-23T03:38:27;16.30;99.90
6958;DHT22;50346;51.268;15.942;2022-08-23T03:40:52;16.30;99.90
6958;DHT22;50346;51.268;15.942;2022-08-23T03:43:19;16.50;99.90
6958;DHT22;50346;51.268;15.942;2022-08-23T03:45:45;16.40;99.90
6958;DHT22;50346;51.268;15.942;2022-08-23T03:48:10;16.40;99.90
6958;DHT22;50346;51.268;15.942;2022-08-23T03:50:36;16.40;99.90
6958;DHT22;50346;51.268;15.942;2022-08-23T03:53:02;16.40;99.90
6958;DHT22;50346;51.268;15.942;2022-08-23T04:02:45;16.60;99.90
6958;DHT22;50346;51.268;15.942;2022-08-23T04:05:11;16.60;99.90
6958;DHT22;50346;51.268;15.942;2022-08-23T04:07:38;16.50;99.90
6958;DHT22;50346;51.268;15.942;2022-08-23T04:10:05;16.50;99.90
6958;DHT22;50346;51.268;15.942;2022-08-23T04:12:31;16.50;99.90
6958;DHT22;50346;51.268;15.942;2022-08-23T04:14:57;16.50;99.90
6958;DHT22;50346;51.268;15.942;2022-08-23T04:17:23;16.40;99.90
6958;DHT22;50346;51.268;15.942;2022-08-23T04:19:49;16.60;99.90
6958;DHT22;50346;51.268;15.942;2022-08-23T04:22:17;16.40;99.90
6958;DHT22;50346;51.268;15.942;2022-08-23T04:24:43;16.50;99.90
6958;DHT22;50346;51.268;15.942;2022-08-23T04:27:10;16.50;99.90
6958;DHT22;50346;51.268;15.942;2022-08-23T04:29:36;16.50;99.90
6958;DHT22;50346;51.268;15.942;2022-08-23T04:32:04;16.50;99.90
6958;DHT22;50346;51.268;15.942;2022-08-23T04:34:30;16.40;99.90
6958;DHT22;50346;51.268;15.942;2022-08-23T04:36:58;16.40;99.90
6958;DHT22;50346;51.268;15.942;2022-08-23T04:39:25;16.50;99.90
6958;DHT22;50346;51.268;15.942;2022-08-23T04:41:51;16.40;99.90
6958;DHT22;50346;51.268;15.942;2022-08-23T04:44:35;16.50;99.90
6958;DHT22;50346;51.268;15.942;2022-08-23T04:47:00;16.40;99.90
6958;DHT22;50346;51.268;15.942;2022-08-23T04:49:26;16.50;99.90
6958;DHT22;50346;51.268;15.942;2022-08-23T04:51:52;16.40;99.90
6958;DHT22;50346;51.268;15.942;2022-08-23T04:54:17;16.50;99.90
6958;DHT22;50346;51.268;15.942;2022-08-23T04:56:43;16.40;99.90
6958;DHT22;50346;51.268;15.942;2022-08-23T04:59:08;16.50;99.90
6958;DHT22;50346;51.268;15.942;2022-08-23T05:01:34;16.70;99.90
6958;DHT22;50346;51.268;15.942;2022-08-23T05:04:02;16.50;99.90
6958;DHT22;50346;51.268;15.942;2022-08-23T05:06:27;16.40;99.90
6958;DHT22;50346;51.268;15.942;2022-08-23T05:08:54;16.50;99.90
6958;DHT22;50346;51.268;15.942;2022-08-23T05:11:20;16.50;99.90
6958;DHT22;50346;51.268;15.942;2022-08-23T05:13:46;16.50;99.90
6958;DHT22;50346;51.268;15.942;2022-08-23T05:16:12;16.50;99.90
6958;DHT22;50346;51.268;15.942;2022-08-23T05:18:38;16.50;99.90
6958;DHT22;50346;51.268;15.942;2022-08-23T05:21:04;16.40;99.90
6958;DHT22;50346;51.268;15.942;2022-08-23T05:23:30;16.50;99.90
6958;DHT22;50346;51.268;15.942;2022-08-23T05:25:56;16.60;99.90
6958;DHT22;50346;51.268;15.942;2022-08-23T05:28:29;16.60;99.90
6958;DHT22;50346;51.268;15.942;2022-08-23T05:31:05;16.50;99.90
6958;DHT22;50346;51.268;15.942;2022-08-23T05:33:32;16.50;99.90
6958;DHT22;50346;51.268;15.942;2022-08-23T05:35:58;16.50;99.90
6958;DHT22;50346;51.268;15.942;2022-08-23T05:38:25;16.50;99.90
6958;DHT22;50346;51.268;15.942;2022-08-23T05:40:52;16.40;99.90
6958;DHT22;50346;51.268;15.942;2022-08-23T05:43:19;16.60;99.90
6958;DHT22;50346;51.268;15.942;2022-08-23T05:45:45;16.60;99.90
6958;DHT22;50346;51.268;15.942;2022-08-23T05:48:12;16.50;99.90
6958;DHT22;50346;51.268;15.942;2022-08-23T05:50:38;16.60;99.90
6958;DHT22;50346;51.268;15.942;2022-08-23T05:53:05;16.50;99.90
6958;DHT22;50346;51.268;15.942;2022-08-23T05:55:32;16.60;99.90
6958;DHT22;50346;51.268;15.942;2022-08-23T05:57:58;16.60;99.90
6958;DHT22;50346;51.268;15.942;2022-08-23T06:00:24;16.70;99.90
6958;DHT22;50346;51.268;15.942;2022-08-23T06:02:50;16.80;99.90
6958;DHT22;50346;51.268;15.942;2022-08-23T06:05:16;16.70;99.90
6958;DHT22;50346;51.268;15.942;2022-08-23T06:07:42;16.80;99.90
6958;DHT22;50346;51.268;15.942;2022-08-23T06:10:07;16.80;99.90
6958;DHT22;50346;51.268;15.942;2022-08-23T06:12:34;16.80;99.90
6958;DHT22;50346;51.268;15.942;2022-08-23T06:15:00;16.90;99.90
6958;DHT22;50346;51.268;15.942;2022-08-23T06:17:27;16.90;99.90
6958;DHT22;50346;51.268;15.942;2022-08-23T06:19:52;17.00;99.90
6958;DHT22;50346;51.268;15.942;2022-08-23T06:22:18;17.00;99.90
6958;DHT22;50346;51.268;15.942;2022-08-23T06:27:11;17.10;99.90
6958;DHT22;50346;51.268;15.942;2022-08-23T06:32:04;17.20;99.90
6958;DHT22;50346;51.268;15.942;2022-08-23T06:34:32;17.20;99.90
6958;DHT22;50346;51.268;15.942;2022-08-23T06:37:06;17.20;99.90
6958;DHT22;50346;51.268;15.942;2022-08-23T06:39:33;17.20;99.90
6958;DHT22;50346;51.268;15.942;2022-08-23T06:42:07;17.30;99.90
6958;DHT22;50346;51.268;15.942;2022-08-23T06:44:34;17.30;99.90
6958;DHT22;50346;51.268;15.942;2022-08-23T06:47:02;17.40;99.90
6958;DHT22;50346;51.268;15.942;2022-08-23T06:49:28;17.30;99.90
6958;DHT22;50346;51.268;15.942;2022-08-23T06:51:57;17.30;99.90
6958;DHT22;50346;51.268;15.942;2022-08-23T06:54:27;17.60;99.90
6958;DHT22;50346;51.268;15.942;2022-08-23T06:56:53;17.40;99.90
6958;DHT22;50346;51.268;15.942;2022-08-23T06:59:19;17.50;99.90
6958;DHT22;50346;51.268;15.942;2022-08-23T07:02:03;17.60;99.90
6958;DHT22;50346;51.268;15.942;2022-08-23T07:04:33;17.50;99.90
6958;DHT22;50346;51.268;15.942;2022-08-23T07:07:00;17.70;99.90
6958;DHT22;50346;51.268;15.942;2022-08-23T07:09:27;17.60;99.90
6958;DHT22;50346;51.268;15.942;2022-08-23T07:11:53;17.50;99.90
6958;DHT22;50346;51.268;15.942;2022-08-23T07:14:21;17.50;99.90
6958;DHT22;50346;51.268;15.942;2022-08-23T07:17:05;17.50;99.90
6958;DHT22;50346;51.268;15.942;2022-08-23T07:19:33;17.50;99.90
6958;DHT22;50346;51.268;15.942;2022-08-23T07:21:59;17.80;99.90
6958;DHT22;50346;51.268;15.942;2022-08-23T07:24:26;17.50;99.90
6958;DHT22;50346;51.268;15.942;2022-08-23T07:26:52;17.60;99.90
6958;DHT22;50346;51.268;15.942;2022-08-23T07:29:19;17.60;99.90
6958;DHT22;50346;51.268;15.942;2022-08-23T07:31:53;17.50;99.90
6958;DHT22;50346;51.268;15.942;2022-08-23T07:34:20;17.70;99.90
6958;DHT22;50346;51.268;15.942;2022-08-23T07:36:46;17.40;99.90
6958;DHT22;50346;51.268;15.942;2022-08-23T07:39:13;17.40;99.90
6958;DHT22;50346;51.268;15.942;2022-08-23T07:41:39;17.50;99.90
6958;DHT22;50346;51.268;15.942;2022-08-23T07:44:07;17.50;99.90
6958;DHT22;50346;51.268;15.942;2022-08-23T07:46:34;17.50;99.90
6958;DHT22;50346;51.268;15.942;2022-08-23T07:49:02;17.50;99.90
6958;DHT22;50346;51.268;15.942;2022-08-23T07:51:29;17.60;99.90
6958;DHT22;50346;51.268;15.942;2022-08-23T07:53:56;17.50;99.90
6958;DHT22;50346;51.268;15.942;2022-08-23T08:03:48;17.90;99.90
6958;DHT22;50346;51.268;15.942;2022-08-23T08:06:37;17.90;99.90
6958;DHT22;50346;51.268;15.942;2022-08-23T08:11:32;17.90;99.90
6958;DHT22;50346;51.268;15.942;2022-08-23T08:13:58;17.90;99.90
6958;DHT22;50346;51.268;15.942;2022-08-23T08:16:30;17.90;99.90
6958;DHT22;50346;51.268;15.942;2022-08-23T08:18:58;17.90;99.90
6958;DHT22;50346;51.268;15.942;2022-08-23T08:21:24;17.90;99.90
6958;DHT22;50346;51.268;15.942;2022-08-23T08:26:17;17.90;99.90
6958;DHT22;50346;51.268;15.942;2022-08-23T08:28:44;17.80;99.90
6958;DHT22;50346;51.268;15.942;2022-08-23T08:31:09;17.80;99.90
6958;DHT22;50346;51.268;15.942;2022-08-23T08:33:36;17.80;99.90
6958;DHT22;50346;51.268;15.942;2022-08-23T08:36:02;17.80;99.90
6958;DHT22;50346;51.268;15.942;2022-08-23T08:38:28;17.80;99.90
6958;DHT22;50346;51.268;15.942;2022-08-23T08:46:14;17.90;99.90
6958;DHT22;50346;51.268;15.942;2022-08-23T08:53:53;17.90;99.90
6958;DHT22;50346;51.268;15.942;2022-08-23T08:56:25;17.90;99.90
6958;DHT22;50346;51.268;15.942;2022-08-23T08:58:53;17.90;99.90
6958;DHT22;50346;51.268;15.942;2022-08-23T09:01:21;17.90;99.90
6958;DHT22;50346;51.268;15.942;2022-08-23T09:06:27;18.10;99.90
6958;DHT22;50346;51.268;15.942;2022-08-23T09:17:59;17.80;99.90
6958;DHT22;50346;51.268;15.942;2022-08-23T09:20:28;17.80;99.90
6958;DHT22;50346;51.268;15.942;2022-08-23T09:23:21;18.20;99.90
6958;DHT22;50346;51.268;15.942;2022-08-23T09:25:56;17.90;99.90
6958;DHT22;50346;51.268;15.942;2022-08-23T09:58:51;18.20;99.90
6958;DHT22;50346;51.268;15.942;2022-08-23T10:01:25;18.20;99.90
6958;DHT22;50346;51.268;15.942;2022-08-23T10:04:10;18.10;99.90
6958;DHT22;50346;51.268;15.942;2022-08-23T10:06:37;18.10;99.90
6958;DHT22;50346;51.268;15.942;2022-08-23T10:09:05;18.10;99.90
6958;DHT22;50346;51.268;15.942;2022-08-23T10:11:38;18.10;99.90
6958;DHT22;50346;51.268;15.942;2022-08-23T10:14:05;18.10;99.90
6958;DHT22;50346;51.268;15.942;2022-08-23T10:17:03;18.00;99.90
6958;DHT22;50346;51.268;15.942;2022-08-23T10:22:47;18.20;99.90
6958;DHT22;50346;51.268;15.942;2022-08-23T10:25:28;18.20;99.90
6958;DHT22;50346;51.268;15.942;2022-08-23T10:31:23;18.30;99.90
6958;DHT22;50346;51.268;15.942;2022-08-23T10:34:45;18.30;99.90
6958;DHT22;50346;51.268;15.942;2022-08-23T10:37:21;18.40;99.90
6958;DHT22;50346;51.268;15.942;2022-08-23T10:43:18;18.40;99.90
6958;DHT22;50346;51.268;15.942;2022-08-23T10:45:51;18.40;99.90
6958;DHT22;50346;51.268;15.942;2022-08-23T10:48:29;18.50;99.90
6958;DHT22;50346;51.268;15.942;2022-08-23T10:51:11;18.50;99.90
6958;DHT22;50346;51.268;15.942;2022-08-23T10:56:17;18.60;99.90
6958;DHT22;50346;51.268;15.942;2022-08-23T11:01:21;18.60;99.90
6958;DHT22;50346;51.268;15.942;2022-08-23T11:04:05;18.60;99.90
6958;DHT22;50346;51.268;15.942;2022-08-23T11:14:36;18.50;99.90
6958;DHT22;50346;51.268;15.942;2022-08-23T11:17:07;18.60;99.90
6958;DHT22;50346;51.268;15.942;2022-08-23T11:19:50;18.60;99.90
6958;DHT22;50346;51.268;15.942;2022-08-23T11:22:26;18.60;99.90
6958;DHT22;50346;51.268;15.942;2022-08-23T11:27:34;18.70;99.90
6958;DHT22;50346;51.268;15.942;2022-08-23T11:43:32;19.00;99.90
6958;DHT22;50346;51.268;15.942;2022-08-23T12:08:32;19.20;99.90
6958;DHT22;50346;51.268;15.942;2022-08-23T12:11:09;19.20;99.90
6958;DHT22;50346;51.268;15.942;2022-08-23T12:13:56;19.20;99.90
6958;DHT22;50346;51.268;15.942;2022-08-23T12:29:35;19.10;99.90
6958;DHT22;50346;51.268;15.942;2022-08-23T12:37:50;18.90;99.90
6958;DHT22;50346;51.268;15.942;2022-08-23T12:40:31;18.90;99.90
6958;DHT22;50346;51.268;15.942;2022-08-23T12:46:00;18.90;99.90
6958;DHT22;50346;51.268;15.942;2022-08-23T12:48:28;18.90;99.90
6958;DHT22;50346;51.268;15.942;2022-08-23T12:51:10;19.00;99.90
6958;DHT22;50346;51.268;15.942;2022-08-23T12:53:41;19.00;99.90
6958;DHT22;50346;51.268;15.942;2022-08-23T12:58:50;19.00;99.90
6958;DHT22;50346;51.268;15.942;2022-08-23T13:01:24;19.00;99.90
6958;DHT22;50346;51.268;15.942;2022-08-23T13:03:55;19.00;99.90
6958;DHT22;50346;51.268;15.942;2022-08-23T13:06:47;19.00;99.90
6958;DHT22;50346;51.268;15.942;2022-08-23T13:09:18;19.00;99.90
6958;DHT22;50346;51.268;15.942;2022-08-23T13:11:45;19.00;99.90
6958;DHT22;50346;51.268;15.942;2022-08-23T13:14:26;19.00;99.90
6958;DHT22;50346;51.268;15.942;2022-08-23T13:17:13;19.00;99.90
6958;DHT22;50346;51.268;15.942;2022-08-23T13:19:39;19.00;99.90
6958;DHT22;50346;51.268;15.942;2022-08-23T13:22:26;19.00;99.90
6958;DHT22;50346;51.268;15.942;2022-08-23T13:25:01;19.00;99.90
6958;DHT22;50346;51.268;15.942;2022-08-23T13:30:19;19.10;99.90
6958;DHT22;50346;51.268;15.942;2022-08-23T13:32:48;19.20;99.90
6958;DHT22;50346;51.268;15.942;2022-08-23T13:35:40;19.20;99.90
6958;DHT22;50346;51.268;15.942;2022-08-23T13:43:34;19.40;99.90
6958;DHT22;50346;51.268;15.942;2022-08-23T13:51:36;19.90;99.90
6958;DHT22;50346;51.268;15.942;2022-08-23T13:54:06;20.10;99.90
6958;DHT22;50346;51.268;15.942;2022-08-23T13:56:40;20.20;99.90
6958;DHT22;50346;51.268;15.942;2022-08-23T13:59:50;20.30;99.90
6958;DHT22;50346;51.268;15.942;2022-08-23T14:02:10;20.30;99.90
6958;DHT22;50346;51.268;15.942;2022-08-23T14:04:38;20.20;99.90
6958;DHT22;50346;51.268;15.942;2022-08-23T14:07:04;20.20;99.90
6958;DHT22;50346;51.268;15.942;2022-08-23T14:09:30;20.20;99.90
6958;DHT22;50346;51.268;15.942;2022-08-23T14:12:01;20.10;99.90
6958;DHT22;50346;51.268;15.942;2022-08-23T14:14:30;20.00;99.90
6958;DHT22;50346;51.268;15.942;2022-08-23T14:16:56;20.00;99.90
6958;DHT22;50346;51.268;15.942;2022-08-23T14:36:24;20.20;99.90
6958;DHT22;50346;51.268;15.942;2022-08-23T14:41:19;19.60;99.90
6958;DHT22;50346;51.268;15.942;2022-08-23T14:43:46;19.60;99.90
6958;DHT22;50346;51.268;15.942;2022-08-23T14:46:12;19.60;99.90
6958;DHT22;50346;51.268;15.942;2022-08-23T14:48:38;19.70;99.90
6958;DHT22;50346;51.268;15.942;2022-08-23T14:51:04;19.70;99.90
6958;DHT22;50346;51.268;15.942;2022-08-23T14:53:32;19.70;99.90
6958;DHT22;50346;51.268;15.942;2022-08-23T14:55:58;19.70;99.90
6958;DHT22;50346;51.268;15.942;2022-08-23T14:58:24;19.60;99.90
6958;DHT22;50346;51.268;15.942;2022-08-23T15:00:50;19.60;99.90
6958;DHT22;50346;51.268;15.942;2022-08-23T15:03:22;19.60;99.90
6958;DHT22;50346;51.268;15.942;2022-08-23T15:05:49;19.50;99.90
6958;DHT22;50346;51.268;15.942;2022-08-23T15:08:14;19.50;99.90
6958;DHT22;50346;51.268;15.942;2022-08-23T15:10:40;19.50;99.90
6958;DHT22;50346;51.268;15.942;2022-08-23T15:13:06;19.50;99.90
6958;DHT22;50346;51.268;15.942;2022-08-23T15:15:33;19.50;99.90
6958;DHT22;50346;51.268;15.942;2022-08-23T15:18:00;19.50;99.90
6958;DHT22;50346;51.268;15.942;2022-08-23T15:20:32;19.50;99.90
6958;DHT22;50346;51.268;15.942;2022-08-23T15:22:59;19.50;99.90
6958;DHT22;50346;51.268;15.942;2022-08-23T15:25:28;19.50;99.90
6958;DHT22;50346;51.268;15.942;2022-08-23T15:27:54;19.50;99.90
6958;DHT22;50346;51.268;15.942;2022-08-23T15:30:21;19.40;99.90
6958;DHT22;50346;51.268;15.942;2022-08-23T15:32:48;19.50;99.90
6958;DHT22;50346;51.268;15.942;2022-08-23T15:35:13;19.50;99.90
6958;DHT22;50346;51.268;15.942;2022-08-23T15:37:39;19.50;99.90
6958;DHT22;50346;51.268;15.942;2022-08-23T15:40:06;19.50;99.90
6958;DHT22;50346;51.268;15.942;2022-08-23T15:42:32;19.50;99.90
6958;DHT22;50346;51.268;15.942;2022-08-23T15:44:58;19.50;99.90
6958;DHT22;50346;51.268;15.942;2022-08-23T15:47:27;19.50;99.90
6958;DHT22;50346;51.268;15.942;2022-08-23T15:49:53;19.40;99.90
6958;DHT22;50346;51.268;15.942;2022-08-23T15:52:20;19.50;99.90
6958;DHT22;50346;51.268;15.942;2022-08-23T15:54:46;19.40;99.90
6958;DHT22;50346;51.268;15.942;2022-08-23T15:57:19;19.40;99.90
6958;DHT22;50346;51.268;15.942;2022-08-23T15:59:46;19.40;99.90
6958;DHT22;50346;51.268;15.942;2022-08-23T16:02:12;19.40;99.90
6958;DHT22;50346;51.268;15.942;2022-08-23T16:04:38;19.40;99.90
6958;DHT22;50346;51.268;15.942;2022-08-23T16:07:05;19.30;99.90
6958;DHT22;50346;51.268;15.942;2022-08-23T16:09:33;19.30;99.90
6958;DHT22;50346;51.268;15.942;2022-08-23T16:11:59;19.30;99.90
6958;DHT22;50346;51.268;15.942;2022-08-23T16:14:25;19.30;99.90
6958;DHT22;50346;51.268;15.942;2022-08-23T16:16:50;19.30;99.90
6958;DHT22;50346;51.268;15.942;2022-08-23T16:19:17;19.30;99.90
6958;DHT22;50346;51.268;15.942;2022-08-23T16:21:43;19.30;99.90
6958;DHT22;50346;51.268;15.942;2022-08-23T16:24:08;19.40;99.90
6958;DHT22;50346;51.268;15.942;2022-08-23T16:26:37;19.40;99.90
6958;DHT22;50346;51.268;15.942;2022-08-23T16:29:06;19.40;99.90
6958;DHT22;50346;51.268;15.942;2022-08-23T16:31:32;19.40;99.90
6958;DHT22;50346;51.268;15.942;2022-08-23T16:33:59;19.40;99.90
6958;DHT22;50346;51.268;15.942;2022-08-23T16:36:25;19.40;99.90
6958;DHT22;50346;51.268;15.942;2022-08-23T16:38:52;19.40;99.90
6958;DHT22;50346;51.268;15.942;2022-08-23T16:41:21;19.40;99.90
6958;DHT22;50346;51.268;15.942;2022-08-23T16:43:48;19.40;99.90
6958;DHT22;50346;51.268;15.942;2022-08-23T16:46:15;19.40;99.90
6958;DHT22;50346;51.268;15.942;2022-08-23T16:48:42;19.40;99.90
6958;DHT22;50346;51.268;15.942;2022-08-23T16:51:09;19.40;99.90
6958;DHT22;50346;51.268;15.942;2022-08-23T16:53:34;19.30;99.90
6958;DHT22;50346;51.268;15.942;2022-08-23T16:56:00;19.30;99.90
6958;DHT22;50346;51.268;15.942;2022-08-23T16:58:26;19.40;99.90
6958;DHT22;50346;51.268;15.942;2022-08-23T17:00:52;19.30;99.90
6958;DHT22;50346;51.268;15.942;2022-08-23T17:03:18;19.30;99.90
6958;DHT22;50346;51.268;15.942;2022-08-23T17:05:45;19.30;99.90
6958;DHT22;50346;51.268;15.942;2022-08-23T17:08:11;19.30;99.90
6958;DHT22;50346;51.268;15.942;2022-08-23T17:10:36;19.30;99.90
6958;DHT22;50346;51.268;15.942;2022-08-23T17:13:03;19.30;99.90
6958;DHT22;50346;51.268;15.942;2022-08-23T17:15:32;19.30;99.90
6958;DHT22;50346;51.268;15.942;2022-08-23T17:17:58;19.30;99.90
6958;DHT22;50346;51.268;15.942;2022-08-23T17:20:44;19.30;99.90
6958;DHT22;50346;51.268;15.942;2022-08-23T17:23:10;19.30;99.90
6958;DHT22;50346;51.268;15.942;2022-08-23T17:25:37;19.20;99.90
6958;DHT22;50346;51.268;15.942;2022-08-23T17:28:03;19.20;99.90
6958;DHT22;50346;51.268;15.942;2022-08-23T17:30:30;19.20;99.90
6958;DHT22;50346;51.268;15.942;2022-08-23T17:32:57;19.20;99.90
6958;DHT22;50346;51.268;15.942;2022-08-23T17:35:26;19.20;99.90
6958;DHT22;50346;51.268;15.942;2022-08-23T17:37:53;19.20;99.90
6958;DHT22;50346;51.268;15.942;2022-08-23T17:40:26;19.10;99.90
6958;DHT22;50346;51.268;15.942;2022-08-23T17:42:53;19.10;99.90
6958;DHT22;50346;51.268;15.942;2022-08-23T17:45:19;19.10;99.90
6958;DHT22;50346;51.268;15.942;2022-08-23T17:47:45;19.10;99.90
6958;DHT22;50346;51.268;15.942;2022-08-23T17:50:11;19.10;99.90
6958;DHT22;50346;51.268;15.942;2022-08-23T17:52:37;19.10;99.90
6958;DHT22;50346;51.268;15.942;2022-08-23T17:55:03;19.10;99.90
6958;DHT22;50346;51.268;15.942;2022-08-23T17:57:29;19.10;99.90
6958;DHT22;50346;51.268;15.942;2022-08-23T17:59:55;19.10;99.90
6958;DHT22;50346;51.268;15.942;2022-08-23T18:02:21;19.10;99.90
6958;DHT22;50346;51.268;15.942;2022-08-23T18:04:47;19.00;99.90
6958;DHT22;50346;51.268;15.942;2022-08-23T18:07:13;19.00;99.90
6958;DHT22;50346;51.268;15.942;2022-08-23T18:09:39;19.00;99.90
6958;DHT22;50346;51.268;15.942;2022-08-23T18:12:05;19.00;99.90
6958;DHT22;50346;51.268;15.942;2022-08-23T18:14:32;19.00;99.90
6958;DHT22;50346;51.268;15.942;2022-08-23T18:16:58;19.00;99.90
6958;DHT22;50346;51.268;15.942;2022-08-23T18:19:23;19.00;99.90
6958;DHT22;50346;51.268;15.942;2022-08-23T18:21:49;19.00;99.90
6958;DHT22;50346;51.268;15.942;2022-08-23T18:24:16;19.00;99.90
6958;DHT22;50346;51.268;15.942;2022-08-23T18:26:43;19.00;99.90
6958;DHT22;50346;51.268;15.942;2022-08-23T18:29:28;19.00;99.90
6958;DHT22;50346;51.268;15.942;2022-08-23T18:31:53;19.00;99.90
6958;DHT22;50346;51.268;15.942;2022-08-23T18:34:20;19.00;99.90
6958;DHT22;50346;51.268;15.942;2022-08-23T18:36:45;19.00;99.90
6958;DHT22;50346;51.268;15.942;2022-08-23T18:39:13;19.00;99.90
6958;DHT22;50346;51.268;15.942;2022-08-23T18:41:40;19.00;99.90
6958;DHT22;50346;51.268;15.942;2022-08-23T18:44:06;19.00;99.90
6958;DHT22;50346;51.268;15.942;2022-08-23T18:46:37;19.00;99.90
6958;DHT22;50346;51.268;15.942;2022-08-23T18:49:04;19.00;99.90
6958;DHT22;50346;51.268;15.942;2022-08-23T18:51:30;19.00;99.90
6958;DHT22;50346;51.268;15.942;2022-08-23T18:53:56;19.00;99.90
6958;DHT22;50346;51.268;15.942;2022-08-23T18:56:23;19.00;99.90
6958;DHT22;50346;51.268;15.942;2022-08-23T18:58:50;19.00;99.90
6958;DHT22;50346;51.268;15.942;2022-08-23T19:01:27;19.00;99.90